sensor_id;sensor_type;location;lat;lon;timestamp;P1;durP1;ratioP1;P2;durP2;ratioP2
59338;SDS011;45117;50.960;5.500;2023-07-29T00:00:30;5.88;;;3.92;;
59338;SDS011;45117;50.960;5.500;2023-07-29T00:05:44;4.57;;;3.40;;
59338;SDS011;45117;50.960;5.500;2023-07-29T00:08:11;4.57;;;3.20;;
59338;SDS011;45117;50.960;5.500;2023-07-29T00:10:39;4.40;;;3.38;;
59338;SDS011;45117;50.960;5.500;2023-07-29T00:13:07;3.92;;;3.35;;
59338;SDS011;45117;50.960;5.500;2023-07-29T00:15:33;3.60;;;2.78;;
59338;SDS011;45117;50.960;5.500;2023-07-29T00:18:00;3.88;;;2.67;;
59338;SDS011;45117;50.960;5.500;2023-07-29T00:20:27;5.38;;;3.47;;
59338;SDS011;45117;50.960;5.500;2023-07-29T00:22:54;5.47;;;3.25;;
59338;SDS011;45117;50.960;5.500;2023-07-29T00:25:22;5.18;;;2.78;;
59338;SDS011;45117;50.960;5.500;2023-07-29T00:27:50;3.65;;;3.00;;
59338;SDS011;45117;50.960;5.500;2023-07-29T00:30:16;4.07;;;3.45;;
59338;SDS011;45117;50.960;5.500;2023-07-29T00:32:43;6.60;;;3.15;;
59338;SDS011;45117;50.960;5.500;2023-07-29T00:35:09;7.32;;;3.00;;
59338;SDS011;45117;50.960;5.500;2023-07-29T00:37:36;4.90;;;3.42;;
59338;SDS011;45117;50.960;5.500;2023-07-29T00:40:04;3.60;;;2.80;;
59338;SDS011;45117;50.960;5.500;2023-07-29T00:42:36;5.22;;;3.33;;
59338;SDS011;45117;50.960;5.500;2023-07-29T00:45:04;4.30;;;3.00;;
59338;SDS011;45117;50.960;5.500;2023-07-29T00:47:32;3.67;;;3.00;;
59338;SDS011;45117;50.960;5.500;2023-07-29T00:49:59;4.55;;;3.55;;
59338;SDS011;45117;50.960;5.500;2023-07-29T00:52:26;4.72;;;2.92;;
59338;SDS011;45117;50.960;5.500;2023-07-29T00:54:52;4.03;;;3.38;;
59338;SDS011;45117;50.960;5.500;2023-07-29T00:57:19;4.07;;;3.50;;
59338;SDS011;45117;50.960;5.500;2023-07-29T00:59:50;5.53;;;3.75;;
59338;SDS011;45117;50.960;5.500;2023-07-29T01:09:54;5.88;;;4.05;;
59338;SDS011;45117;50.960;5.500;2023-07-29T01:12:27;7.20;;;3.80;;
59338;SDS011;45117;50.960;5.500;2023-07-29T01:15:05;7.32;;;4.18;;
59338;SDS011;45117;50.960;5.500;2023-07-29T01:17:39;5.00;;;3.40;;
59338;SDS011;45117;50.960;5.500;2023-07-29T01:20:09;3.88;;;3.20;;
59338;SDS011;45117;50.960;5.500;2023-07-29T01:22:39;3.40;;;3.10;;
59338;SDS011;45117;50.960;5.500;2023-07-29T01:25:08;4.85;;;3.05;;
59338;SDS011;45117;50.960;5.500;2023-07-29T01:27:34;5.72;;;2.65;;
59338;SDS011;45117;50.960;5.500;2023-07-29T01:30:01;6.68;;;3.22;;
59338;SDS011;45117;50.960;5.500;2023-07-29T01:35:25;6.00;;;2.55;;
59338;SDS011;45117;50.960;5.500;2023-07-29T01:38:03;5.30;;;2.03;;
59338;SDS011;45117;50.960;5.500;2023-07-29T01:40:36;3.58;;;2.40;;
59338;SDS011;45117;50.960;5.500;2023-07-29T01:56:45;4.93;;;1.80;;
59338;SDS011;45117;50.960;5.500;2023-07-29T01:59:12;4.07;;;1.58;;
59338;SDS011;45117;50.960;5.500;2023-07-29T02:01:41;2.17;;;1.73;;
59338;SDS011;45117;50.960;5.500;2023-07-29T02:04:07;4.22;;;2.28;;
59338;SDS011;45117;50.960;5.500;2023-07-29T02:06:34;4.28;;;2.25;;
59338;SDS011;45117;50.960;5.500;2023-07-29T02:09:01;3.28;;;2.00;;
59338;SDS011;45117;50.960;5.500;2023-07-29T02:11:29;5.35;;;1.70;;
59338;SDS011;45117;50.960;5.500;2023-07-29T02:13:57;2.58;;;2.00;;
59338;SDS011;45117;50.960;5.500;2023-07-29T02:16:24;3.55;;;2.10;;
59338;SDS011;45117;50.960;5.500;2023-07-29T02:18:50;3.65;;;2.08;;
59338;SDS011;45117;50.960;5.500;2023-07-29T02:21:17;3.47;;;1.67;;
59338;SDS011;45117;50.960;5.500;2023-07-29T02:23:44;4.05;;;1.85;;
59338;SDS011;45117;50.960;5.500;2023-07-29T02:26:10;4.93;;;1.90;;
59338;SDS011;45117;50.960;5.500;2023-07-29T02:28:37;8.18;;;3.10;;
59338;SDS011;45117;50.960;5.500;2023-07-29T02:31:12;3.80;;;1.92;;
59338;SDS011;45117;50.960;5.500;2023-07-29T02:33:41;4.57;;;2.13;;
59338;SDS011;45117;50.960;5.500;2023-07-29T02:36:08;6.22;;;2.00;;
59338;SDS011;45117;50.960;5.500;2023-07-29T02:38:35;3.78;;;2.53;;
59338;SDS011;45117;50.960;5.500;2023-07-29T02:41:01;3.75;;;2.40;;
59338;SDS011;45117;50.960;5.500;2023-07-29T02:43:28;3.55;;;2.00;;
59338;SDS011;45117;50.960;5.500;2023-07-29T02:45:54;2.33;;;1.67;;
59338;SDS011;45117;50.960;5.500;2023-07-29T02:48:22;3.08;;;1.58;;
59338;SDS011;45117;50.960;5.500;2023-07-29T02:50:49;3.72;;;1.77;;
59338;SDS011;45117;50.960;5.500;2023-07-29T02:53:16;2.28;;;1.40;;
59338;SDS011;45117;50.960;5.500;2023-07-29T02:55:42;2.35;;;1.77;;
59338;SDS011;45117;50.960;5.500;2023-07-29T02:58:09;4.05;;;1.40;;
59338;SDS011;45117;50.960;5.500;2023-07-29T03:00:35;2.38;;;1.65;;
59338;SDS011;45117;50.960;5.500;2023-07-29T03:03:02;1.80;;;1.52;;
59338;SDS011;45117;50.960;5.500;2023-07-29T03:05:30;3.28;;;1.88;;
59338;SDS011;45117;50.960;5.500;2023-07-29T03:07:57;2.15;;;1.50;;
59338;SDS011;45117;50.960;5.500;2023-07-29T03:10:24;3.30;;;1.38;;
59338;SDS011;45117;50.960;5.500;2023-07-29T03:12:52;3.53;;;1.52;;
59338;SDS011;45117;50.960;5.500;2023-07-29T03:15:22;3.90;;;1.30;;
59338;SDS011;45117;50.960;5.500;2023-07-29T03:17:49;3.85;;;1.70;;
59338;SDS011;45117;50.960;5.500;2023-07-29T03:20:16;3.13;;;1.40;;
59338;SDS011;45117;50.960;5.500;2023-07-29T03:22:45;3.15;;;1.70;;
59338;SDS011;45117;50.960;5.500;2023-07-29T03:25:11;2.40;;;1.75;;
59338;SDS011;45117;50.960;5.500;2023-07-29T03:27:38;2.53;;;1.35;;
59338;SDS011;45117;50.960;5.500;2023-07-29T03:30:06;4.97;;;1.45;;
59338;SDS011;45117;50.960;5.500;2023-07-29T03:32:33;3.70;;;1.65;;
59338;SDS011;45117;50.960;5.500;2023-07-29T03:34:59;2.42;;;1.73;;
59338;SDS011;45117;50.960;5.500;2023-07-29T03:37:26;3.25;;;1.50;;
59338;SDS011;45117;50.960;5.500;2023-07-29T03:39:54;4.47;;;1.63;;
59338;SDS011;45117;50.960;5.500;2023-07-29T03:42:21;3.38;;;1.60;;
59338;SDS011;45117;50.960;5.500;2023-07-29T03:44:47;3.40;;;1.85;;
59338;SDS011;45117;50.960;5.500;2023-07-29T03:47:14;5.57;;;1.65;;
59338;SDS011;45117;50.960;5.500;2023-07-29T03:49:40;3.95;;;1.77;;
59338;SDS011;45117;50.960;5.500;2023-07-29T03:52:07;3.60;;;1.58;;
59338;SDS011;45117;50.960;5.500;2023-07-29T03:54:34;3.70;;;1.63;;
59338;SDS011;45117;50.960;5.500;2023-07-29T03:57:02;2.10;;;1.40;;
59338;SDS011;45117;50.960;5.500;2023-07-29T03:59:29;3.58;;;1.35;;
59338;SDS011;45117;50.960;5.500;2023-07-29T04:01:56;2.35;;;1.60;;
59338;SDS011;45117;50.960;5.500;2023-07-29T04:04:22;3.35;;;1.40;;
59338;SDS011;45117;50.960;5.500;2023-07-29T04:06:49;2.80;;;1.70;;
59338;SDS011;45117;50.960;5.500;2023-07-29T04:09:15;2.55;;;1.40;;
59338;SDS011;45117;50.960;5.500;2023-07-29T04:11:42;1.98;;;1.42;;
59338;SDS011;45117;50.960;5.500;2023-07-29T04:14:10;2.33;;;1.48;;
59338;SDS011;45117;50.960;5.500;2023-07-29T04:16:37;2.80;;;1.60;;
59338;SDS011;45117;50.960;5.500;2023-07-29T04:19:03;3.15;;;1.60;;
59338;SDS011;45117;50.960;5.500;2023-07-29T04:21:30;2.65;;;1.70;;
59338;SDS011;45117;50.960;5.500;2023-07-29T04:23:56;2.35;;;1.60;;
59338;SDS011;45117;50.960;5.500;2023-07-29T04:26:23;4.95;;;2.03;;
59338;SDS011;45117;50.960;5.500;2023-07-29T04:28:50;4.53;;;1.92;;
59338;SDS011;45117;50.960;5.500;2023-07-29T04:31:18;2.67;;;1.73;;
59338;SDS011;45117;50.960;5.500;2023-07-29T04:33:44;2.53;;;1.80;;
59338;SDS011;45117;50.960;5.500;2023-07-29T04:36:11;3.30;;;1.83;;
59338;SDS011;45117;50.960;5.500;2023-07-29T04:38:37;3.58;;;1.77;;
59338;SDS011;45117;50.960;5.500;2023-07-29T04:41:04;3.78;;;1.98;;
59338;SDS011;45117;50.960;5.500;2023-07-29T04:43:32;3.17;;;1.80;;
59338;SDS011;45117;50.960;5.500;2023-07-29T04:45:59;2.90;;;2.10;;
59338;SDS011;45117;50.960;5.500;2023-07-29T04:48:27;5.45;;;2.03;;
59338;SDS011;45117;50.960;5.500;2023-07-29T04:50:53;3.35;;;2.03;;
59338;SDS011;45117;50.960;5.500;2023-07-29T04:53:20;5.35;;;1.83;;
59338;SDS011;45117;50.960;5.500;2023-07-29T04:55:46;3.53;;;1.90;;
59338;SDS011;45117;50.960;5.500;2023-07-29T04:58:13;3.15;;;1.80;;
59338;SDS011;45117;50.960;5.500;2023-07-29T05:00:40;2.88;;;1.98;;
59338;SDS011;45117;50.960;5.500;2023-07-29T05:03:06;4.80;;;2.03;;
59338;SDS011;45117;50.960;5.500;2023-07-29T05:05:34;2.85;;;1.88;;
59338;SDS011;45117;50.960;5.500;2023-07-29T05:08:01;7.50;;;2.13;;
59338;SDS011;45117;50.960;5.500;2023-07-29T05:10:28;2.88;;;1.75;;
59338;SDS011;45117;50.960;5.500;2023-07-29T05:12:54;4.35;;;1.80;;
59338;SDS011;45117;50.960;5.500;2023-07-29T05:15:21;6.13;;;2.00;;
59338;SDS011;45117;50.960;5.500;2023-07-29T05:17:47;3.15;;;1.95;;
59338;SDS011;45117;50.960;5.500;2023-07-29T05:23:50;5.00;;;2.67;;
59338;SDS011;45117;50.960;5.500;2023-07-29T05:26:16;4.90;;;2.20;;
59338;SDS011;45117;50.960;5.500;2023-07-29T05:28:43;4.15;;;1.67;;
59338;SDS011;45117;50.960;5.500;2023-07-29T05:31:10;4.40;;;1.85;;
59338;SDS011;45117;50.960;5.500;2023-07-29T05:33:36;4.93;;;2.00;;
59338;SDS011;45117;50.960;5.500;2023-07-29T05:36:06;3.10;;;1.63;;
59338;SDS011;45117;50.960;5.500;2023-07-29T05:38:32;3.60;;;1.88;;
59338;SDS011;45117;50.960;5.500;2023-07-29T05:41:00;2.70;;;1.75;;
59338;SDS011;45117;50.960;5.500;2023-07-29T05:43:27;3.72;;;1.92;;
59338;SDS011;45117;50.960;5.500;2023-07-29T05:45:54;4.38;;;1.73;;
59338;SDS011;45117;50.960;5.500;2023-07-29T05:48:20;3.95;;;1.80;;
59338;SDS011;45117;50.960;5.500;2023-07-29T05:50:47;2.88;;;1.58;;
59338;SDS011;45117;50.960;5.500;2023-07-29T05:53:14;4.50;;;1.80;;
59338;SDS011;45117;50.960;5.500;2023-07-29T05:55:41;4.15;;;1.77;;
59338;SDS011;45117;50.960;5.500;2023-07-29T05:58:09;4.43;;;1.65;;
59338;SDS011;45117;50.960;5.500;2023-07-29T06:00:36;4.53;;;1.90;;
59338;SDS011;45117;50.960;5.500;2023-07-29T06:03:02;3.58;;;1.70;;
59338;SDS011;45117;50.960;5.500;2023-07-29T06:05:29;2.47;;;1.60;;
59338;SDS011;45117;50.960;5.500;2023-07-29T06:07:56;2.80;;;1.83;;
59338;SDS011;45117;50.960;5.500;2023-07-29T06:10:22;3.28;;;1.33;;
59338;SDS011;45117;50.960;5.500;2023-07-29T06:12:49;2.88;;;1.10;;
59338;SDS011;45117;50.960;5.500;2023-07-29T06:15:17;5.13;;;1.60;;
59338;SDS011;45117;50.960;5.500;2023-07-29T06:17:46;3.40;;;1.48;;
59338;SDS011;45117;50.960;5.500;2023-07-29T06:20:13;1.63;;;1.30;;
59338;SDS011;45117;50.960;5.500;2023-07-29T06:22:40;2.38;;;1.42;;
59338;SDS011;45117;50.960;5.500;2023-07-29T06:25:07;2.75;;;1.77;;
59338;SDS011;45117;50.960;5.500;2023-07-29T06:27:34;3.20;;;1.60;;
59338;SDS011;45117;50.960;5.500;2023-07-29T06:30:01;4.38;;;1.23;;
59338;SDS011;45117;50.960;5.500;2023-07-29T06:32:29;3.47;;;1.50;;
59338;SDS011;45117;50.960;5.500;2023-07-29T06:34:55;3.65;;;1.40;;
59338;SDS011;45117;50.960;5.500;2023-07-29T06:37:22;3.17;;;1.60;;
59338;SDS011;45117;50.960;5.500;2023-07-29T06:39:48;4.40;;;1.40;;
59338;SDS011;45117;50.960;5.500;2023-07-29T06:42:15;3.78;;;1.60;;
59338;SDS011;45117;50.960;5.500;2023-07-29T06:44:42;2.40;;;1.38;;
59338;SDS011;45117;50.960;5.500;2023-07-29T06:47:13;5.13;;;1.63;;
59338;SDS011;45117;50.960;5.500;2023-07-29T06:49:50;2.97;;;1.55;;
59338;SDS011;45117;50.960;5.500;2023-07-29T06:52:17;3.63;;;1.50;;
59338;SDS011;45117;50.960;5.500;2023-07-29T06:54:43;4.65;;;1.40;;
59338;SDS011;45117;50.960;5.500;2023-07-29T06:57:10;2.65;;;1.45;;
59338;SDS011;45117;50.960;5.500;2023-07-29T06:59:37;6.30;;;1.23;;
59338;SDS011;45117;50.960;5.500;2023-07-29T07:02:03;4.38;;;1.42;;
59338;SDS011;45117;50.960;5.500;2023-07-29T07:04:31;4.60;;;1.50;;
59338;SDS011;45117;50.960;5.500;2023-07-29T07:06:58;3.88;;;1.20;;
59338;SDS011;45117;50.960;5.500;2023-07-29T07:09:25;3.35;;;1.13;;
59338;SDS011;45117;50.960;5.500;2023-07-29T07:11:52;2.25;;;1.02;;
59338;SDS011;45117;50.960;5.500;2023-07-29T07:14:19;2.67;;;0.90;;
59338;SDS011;45117;50.960;5.500;2023-07-29T07:16:45;3.83;;;1.33;;
59338;SDS011;45117;50.960;5.500;2023-07-29T07:19:12;3.60;;;0.90;;
59338;SDS011;45117;50.960;5.500;2023-07-29T07:21:38;3.30;;;1.30;;
59338;SDS011;45117;50.960;5.500;2023-07-29T07:24:06;3.15;;;1.10;;
59338;SDS011;45117;50.960;5.500;2023-07-29T07:26:33;3.45;;;0.98;;
59338;SDS011;45117;50.960;5.500;2023-07-29T07:29:00;1.83;;;0.90;;
59338;SDS011;45117;50.960;5.500;2023-07-29T07:31:27;1.83;;;0.90;;
59338;SDS011;45117;50.960;5.500;2023-07-29T07:33:53;1.88;;;0.88;;
59338;SDS011;45117;50.960;5.500;2023-07-29T07:36:21;3.38;;;1.00;;
59338;SDS011;45117;50.960;5.500;2023-07-29T07:38:48;1.58;;;0.80;;
59338;SDS011;45117;50.960;5.500;2023-07-29T07:41:16;2.70;;;1.10;;
59338;SDS011;45117;50.960;5.500;2023-07-29T07:43:45;1.67;;;0.90;;
59338;SDS011;45117;50.960;5.500;2023-07-29T07:46:11;4.32;;;1.10;;
59338;SDS011;45117;50.960;5.500;2023-07-29T07:48:38;1.58;;;0.75;;
59338;SDS011;45117;50.960;5.500;2023-07-29T07:51:11;1.58;;;0.80;;
59338;SDS011;45117;50.960;5.500;2023-07-29T07:53:38;1.55;;;0.90;;
59338;SDS011;45117;50.960;5.500;2023-07-29T07:56:05;2.13;;;1.00;;
59338;SDS011;45117;50.960;5.500;2023-07-29T07:58:35;2.28;;;0.90;;
59338;SDS011;45117;50.960;5.500;2023-07-29T08:01:02;2.00;;;1.00;;
59338;SDS011;45117;50.960;5.500;2023-07-29T08:03:29;1.50;;;1.00;;
59338;SDS011;45117;50.960;5.500;2023-07-29T08:05:56;2.13;;;0.73;;
59338;SDS011;45117;50.960;5.500;2023-07-29T08:08:23;3.85;;;0.90;;
59338;SDS011;45117;50.960;5.500;2023-07-29T08:10:53;1.77;;;0.90;;
59338;SDS011;45117;50.960;5.500;2023-07-29T08:13:20;1.80;;;0.90;;
59338;SDS011;45117;50.960;5.500;2023-07-29T08:15:49;2.47;;;1.00;;
59338;SDS011;45117;50.960;5.500;2023-07-29T08:18:16;2.85;;;0.70;;
59338;SDS011;45117;50.960;5.500;2023-07-29T08:20:51;3.03;;;1.00;;
59338;SDS011;45117;50.960;5.500;2023-07-29T08:23:18;1.20;;;0.90;;
59338;SDS011;45117;50.960;5.500;2023-07-29T08:25:49;1.83;;;1.10;;
59338;SDS011;45117;50.960;5.500;2023-07-29T08:28:17;2.47;;;1.00;;
59338;SDS011;45117;50.960;5.500;2023-07-29T08:30:44;2.80;;;1.10;;
59338;SDS011;45117;50.960;5.500;2023-07-29T08:33:12;1.80;;;0.95;;
59338;SDS011;45117;50.960;5.500;2023-07-29T08:35:38;1.40;;;1.00;;
59338;SDS011;45117;50.960;5.500;2023-07-29T08:38:06;3.83;;;1.30;;
59338;SDS011;45117;50.960;5.500;2023-07-29T08:40:34;1.75;;;0.90;;
59338;SDS011;45117;50.960;5.500;2023-07-29T08:43:03;1.90;;;0.80;;
59338;SDS011;45117;50.960;5.500;2023-07-29T08:45:31;2.85;;;1.27;;
59338;SDS011;45117;50.960;5.500;2023-07-29T08:48:02;2.15;;;0.90;;
59338;SDS011;45117;50.960;5.500;2023-07-29T08:50:32;1.27;;;0.80;;
59338;SDS011;45117;50.960;5.500;2023-07-29T08:52:59;2.33;;;1.10;;
59338;SDS011;45117;50.960;5.500;2023-07-29T08:55:29;3.28;;;1.15;;
59338;SDS011;45117;50.960;5.500;2023-07-29T08:57:56;3.55;;;1.90;;
59338;SDS011;45117;50.960;5.500;2023-07-29T09:00:23;4.57;;;1.98;;
59338;SDS011;45117;50.960;5.500;2023-07-29T09:02:51;2.15;;;1.30;;
59338;SDS011;45117;50.960;5.500;2023-07-29T09:05:18;2.42;;;1.17;;
59338;SDS011;45117;50.960;5.500;2023-07-29T09:07:49;8.43;;;6.07;;
59338;SDS011;45117;50.960;5.500;2023-07-29T09:10:21;2.22;;;1.63;;
59338;SDS011;45117;50.960;5.500;2023-07-29T09:12:47;1.73;;;1.30;;
59338;SDS011;45117;50.960;5.500;2023-07-29T09:15:20;1.50;;;1.00;;
59338;SDS011;45117;50.960;5.500;2023-07-29T09:17:53;2.67;;;0.90;;
59338;SDS011;45117;50.960;5.500;2023-07-29T09:20:23;1.55;;;0.85;;
59338;SDS011;45117;50.960;5.500;2023-07-29T09:22:52;1.00;;;0.82;;
59338;SDS011;45117;50.960;5.500;2023-07-29T09:25:22;1.55;;;0.80;;
59338;SDS011;45117;50.960;5.500;2023-07-29T09:27:50;1.70;;;0.90;;
59338;SDS011;45117;50.960;5.500;2023-07-29T09:30:17;2.35;;;0.88;;
59338;SDS011;45117;50.960;5.500;2023-07-29T09:32:44;1.40;;;0.80;;
59338;SDS011;45117;50.960;5.500;2023-07-29T09:35:11;2.05;;;1.00;;
59338;SDS011;45117;50.960;5.500;2023-07-29T09:37:38;0.80;;;0.77;;
59338;SDS011;45117;50.960;5.500;2023-07-29T09:40:07;1.30;;;0.90;;
59338;SDS011;45117;50.960;5.500;2023-07-29T09:42:40;2.28;;;0.75;;
59338;SDS011;45117;50.960;5.500;2023-07-29T09:45:18;1.25;;;0.98;;
59338;SDS011;45117;50.960;5.500;2023-07-29T09:47:46;2.20;;;1.10;;
59338;SDS011;45117;50.960;5.500;2023-07-29T09:50:13;1.35;;;0.95;;
59338;SDS011;45117;50.960;5.500;2023-07-29T09:52:57;2.03;;;1.17;;
59338;SDS011;45117;50.960;5.500;2023-07-29T09:55:46;2.33;;;1.00;;
59338;SDS011;45117;50.960;5.500;2023-07-29T09:58:16;3.13;;;1.20;;
59338;SDS011;45117;50.960;5.500;2023-07-29T10:00:45;2.28;;;0.90;;
59338;SDS011;45117;50.960;5.500;2023-07-29T10:03:13;1.85;;;1.00;;
59338;SDS011;45117;50.960;5.500;2023-07-29T10:05:40;2.20;;;0.88;;
59338;SDS011;45117;50.960;5.500;2023-07-29T10:08:08;2.97;;;1.08;;
59338;SDS011;45117;50.960;5.500;2023-07-29T10:10:37;2.10;;;1.20;;
59338;SDS011;45117;50.960;5.500;2023-07-29T10:13:05;3.20;;;1.20;;
59338;SDS011;45117;50.960;5.500;2023-07-29T10:15:32;1.38;;;1.05;;
59338;SDS011;45117;50.960;5.500;2023-07-29T10:17:59;1.90;;;0.82;;
59338;SDS011;45117;50.960;5.500;2023-07-29T10:20:27;2.03;;;1.05;;
59338;SDS011;45117;50.960;5.500;2023-07-29T10:22:55;2.35;;;0.90;;
59338;SDS011;45117;50.960;5.500;2023-07-29T10:25:25;1.77;;;1.00;;
59338;SDS011;45117;50.960;5.500;2023-07-29T10:28:08;1.20;;;1.00;;
59338;SDS011;45117;50.960;5.500;2023-07-29T10:30:49;2.63;;;1.10;;
59338;SDS011;45117;50.960;5.500;2023-07-29T10:33:16;1.45;;;0.88;;
59338;SDS011;45117;50.960;5.500;2023-07-29T10:35:43;2.22;;;1.02;;
59338;SDS011;45117;50.960;5.500;2023-07-29T10:38:13;2.63;;;0.90;;
59338;SDS011;45117;50.960;5.500;2023-07-29T10:40:51;1.70;;;1.00;;
59338;SDS011;45117;50.960;5.500;2023-07-29T10:43:25;1.30;;;1.02;;
59338;SDS011;45117;50.960;5.500;2023-07-29T10:45:53;1.13;;;0.90;;
59338;SDS011;45117;50.960;5.500;2023-07-29T10:48:40;3.25;;;1.10;;
59338;SDS011;45117;50.960;5.500;2023-07-29T10:51:26;2.35;;;0.98;;
59338;SDS011;45117;50.960;5.500;2023-07-29T10:53:58;1.95;;;1.10;;
59338;SDS011;45117;50.960;5.500;2023-07-29T10:56:31;1.90;;;1.00;;
59338;SDS011;45117;50.960;5.500;2023-07-29T10:59:31;1.38;;;0.98;;
59338;SDS011;45117;50.960;5.500;2023-07-29T11:01:59;1.17;;;1.00;;
59338;SDS011;45117;50.960;5.500;2023-07-29T11:04:46;1.65;;;1.08;;
59338;SDS011;45117;50.960;5.500;2023-07-29T11:07:23;1.83;;;0.85;;
59338;SDS011;45117;50.960;5.500;2023-07-29T11:09:59;1.67;;;0.90;;
59338;SDS011;45117;50.960;5.500;2023-07-29T11:12:37;4.15;;;1.00;;
59338;SDS011;45117;50.960;5.500;2023-07-29T11:15:19;2.00;;;0.80;;
59338;SDS011;45117;50.960;5.500;2023-07-29T11:17:50;1.27;;;0.95;;
59338;SDS011;45117;50.960;5.500;2023-07-29T11:20:22;1.40;;;0.90;;
59338;SDS011;45117;50.960;5.500;2023-07-29T11:22:53;1.73;;;1.10;;
59338;SDS011;45117;50.960;5.500;2023-07-29T11:25:21;1.25;;;0.88;;
59338;SDS011;45117;50.960;5.500;2023-07-29T11:27:53;1.52;;;1.02;;
59338;SDS011;45117;50.960;5.500;2023-07-29T11:30:23;2.75;;;1.10;;
59338;SDS011;45117;50.960;5.500;2023-07-29T11:32:53;1.58;;;0.95;;
59338;SDS011;45117;50.960;5.500;2023-07-29T11:35:20;1.90;;;1.00;;
59338;SDS011;45117;50.960;5.500;2023-07-29T11:37:47;1.30;;;1.20;;
59338;SDS011;45117;50.960;5.500;2023-07-29T11:40:15;2.83;;;1.20;;
59338;SDS011;45117;50.960;5.500;2023-07-29T11:42:43;2.22;;;1.20;;
59338;SDS011;45117;50.960;5.500;2023-07-29T11:45:10;3.90;;;1.30;;
59338;SDS011;45117;50.960;5.500;2023-07-29T11:47:40;2.15;;;1.20;;
59338;SDS011;45117;50.960;5.500;2023-07-29T11:50:08;1.58;;;1.20;;
59338;SDS011;45117;50.960;5.500;2023-07-29T11:52:36;4.28;;;1.45;;
59338;SDS011;45117;50.960;5.500;2023-07-29T11:55:04;3.22;;;1.30;;
59338;SDS011;45117;50.960;5.500;2023-07-29T11:57:32;3.20;;;1.40;;
59338;SDS011;45117;50.960;5.500;2023-07-29T12:00:01;1.67;;;1.15;;
59338;SDS011;45117;50.960;5.500;2023-07-29T12:02:28;2.63;;;1.60;;
59338;SDS011;45117;50.960;5.500;2023-07-29T12:04:57;2.13;;;1.70;;
59338;SDS011;45117;50.960;5.500;2023-07-29T12:07:24;2.47;;;1.40;;
59338;SDS011;45117;50.960;5.500;2023-07-29T12:09:51;2.38;;;1.50;;
59338;SDS011;45117;50.960;5.500;2023-07-29T12:12:18;4.10;;;1.60;;
59338;SDS011;45117;50.960;5.500;2023-07-29T12:14:45;3.15;;;1.45;;
59338;SDS011;45117;50.960;5.500;2023-07-29T12:17:12;1.95;;;1.42;;
59338;SDS011;45117;50.960;5.500;2023-07-29T12:19:41;2.88;;;1.73;;
59338;SDS011;45117;50.960;5.500;2023-07-29T12:22:10;1.73;;;1.20;;
59338;SDS011;45117;50.960;5.500;2023-07-29T12:24:37;2.30;;;1.50;;
59338;SDS011;45117;50.960;5.500;2023-07-29T12:27:05;2.92;;;1.70;;
59338;SDS011;45117;50.960;5.500;2023-07-29T12:29:39;2.70;;;2.00;;
59338;SDS011;45117;50.960;5.500;2023-07-29T12:32:09;2.38;;;2.00;;
59338;SDS011;45117;50.960;5.500;2023-07-29T12:34:36;3.22;;;1.30;;
59338;SDS011;45117;50.960;5.500;2023-07-29T12:37:04;1.85;;;1.00;;
59338;SDS011;45117;50.960;5.500;2023-07-29T12:39:33;4.95;;;1.48;;
59338;SDS011;45117;50.960;5.500;2023-07-29T12:42:01;2.28;;;1.13;;
59338;SDS011;45117;50.960;5.500;2023-07-29T12:44:30;4.32;;;1.60;;
59338;SDS011;45117;50.960;5.500;2023-07-29T12:46:57;3.53;;;1.20;;
59338;SDS011;45117;50.960;5.500;2023-07-29T12:49:24;6.70;;;1.70;;
59338;SDS011;45117;50.960;5.500;2023-07-29T12:51:56;2.70;;;1.60;;
59338;SDS011;45117;50.960;5.500;2023-07-29T12:54:23;2.00;;;1.20;;
59338;SDS011;45117;50.960;5.500;2023-07-29T12:56:51;2.65;;;1.58;;
59338;SDS011;45117;50.960;5.500;2023-07-29T12:59:18;3.10;;;1.50;;
59338;SDS011;45117;50.960;5.500;2023-07-29T13:01:45;3.72;;;1.30;;
59338;SDS011;45117;50.960;5.500;2023-07-29T13:04:11;2.90;;;1.63;;
59338;SDS011;45117;50.960;5.500;2023-07-29T13:06:38;2.92;;;1.20;;
59338;SDS011;45117;50.960;5.500;2023-07-29T13:09:05;2.70;;;1.50;;
59338;SDS011;45117;50.960;5.500;2023-07-29T13:11:32;2.33;;;1.67;;
59338;SDS011;45117;50.960;5.500;2023-07-29T13:14:00;8.50;;;1.88;;
59338;SDS011;45117;50.960;5.500;2023-07-29T13:16:27;4.07;;;1.45;;
59338;SDS011;45117;50.960;5.500;2023-07-29T13:18:53;3.08;;;1.40;;
59338;SDS011;45117;50.960;5.500;2023-07-29T13:21:20;2.55;;;1.42;;
59338;SDS011;45117;50.960;5.500;2023-07-29T13:23:47;4.88;;;1.30;;
59338;SDS011;45117;50.960;5.500;2023-07-29T13:26:13;1.80;;;1.30;;
59338;SDS011;45117;50.960;5.500;2023-07-29T13:28:40;4.88;;;1.33;;
59338;SDS011;45117;50.960;5.500;2023-07-29T13:31:09;2.33;;;1.50;;
59338;SDS011;45117;50.960;5.500;2023-07-29T13:33:36;3.55;;;1.70;;
59338;SDS011;45117;50.960;5.500;2023-07-29T13:36:04;2.28;;;1.30;;
59338;SDS011;45117;50.960;5.500;2023-07-29T13:38:33;2.20;;;1.50;;
59338;SDS011;45117;50.960;5.500;2023-07-29T13:41:00;2.25;;;1.35;;
59338;SDS011;45117;50.960;5.500;2023-07-29T13:43:26;2.75;;;1.35;;
59338;SDS011;45117;50.960;5.500;2023-07-29T13:45:53;1.75;;;1.40;;
59338;SDS011;45117;50.960;5.500;2023-07-29T13:48:21;3.50;;;1.67;;
59338;SDS011;45117;50.960;5.500;2023-07-29T13:50:47;2.72;;;1.40;;
59338;SDS011;45117;50.960;5.500;2023-07-29T13:53:14;2.97;;;1.65;;
59338;SDS011;45117;50.960;5.500;2023-07-29T13:55:40;1.90;;;1.40;;
59338;SDS011;45117;50.960;5.500;2023-07-29T13:58:07;3.13;;;1.58;;
59338;SDS011;45117;50.960;5.500;2023-07-29T14:00:34;1.90;;;1.50;;
59338;SDS011;45117;50.960;5.500;2023-07-29T14:03:00;1.48;;;1.38;;
59338;SDS011;45117;50.960;5.500;2023-07-29T14:05:28;1.98;;;1.60;;
59338;SDS011;45117;50.960;5.500;2023-07-29T14:07:55;2.55;;;1.60;;
59338;SDS011;45117;50.960;5.500;2023-07-29T14:10:21;2.58;;;1.50;;
59338;SDS011;45117;50.960;5.500;2023-07-29T14:12:48;2.13;;;1.40;;
59338;SDS011;45117;50.960;5.500;2023-07-29T14:15:20;2.45;;;1.42;;
59338;SDS011;45117;50.960;5.500;2023-07-29T14:18:03;3.65;;;1.63;;
59338;SDS011;45117;50.960;5.500;2023-07-29T14:20:31;1.92;;;1.35;;
59338;SDS011;45117;50.960;5.500;2023-07-29T14:23:00;1.65;;;1.20;;
59338;SDS011;45117;50.960;5.500;2023-07-29T14:25:27;2.03;;;1.30;;
59338;SDS011;45117;50.960;5.500;2023-07-29T14:27:53;2.25;;;1.23;;
59338;SDS011;45117;50.960;5.500;2023-07-29T14:30:20;1.50;;;1.40;;
59338;SDS011;45117;50.960;5.500;2023-07-29T14:32:47;1.70;;;1.20;;
59338;SDS011;45117;50.960;5.500;2023-07-29T14:35:14;1.50;;;1.20;;
59338;SDS011;45117;50.960;5.500;2023-07-29T14:37:42;4.53;;;1.30;;
59338;SDS011;45117;50.960;5.500;2023-07-29T14:40:09;1.65;;;0.95;;
59338;SDS011;45117;50.960;5.500;2023-07-29T14:42:36;2.30;;;1.25;;
59338;SDS011;45117;50.960;5.500;2023-07-29T14:45:02;2.83;;;1.23;;
59338;SDS011;45117;50.960;5.500;2023-07-29T14:47:29;1.98;;;1.58;;
59338;SDS011;45117;50.960;5.500;2023-07-29T14:49:59;1.60;;;1.35;;
59338;SDS011;45117;50.960;5.500;2023-07-29T14:52:26;1.58;;;1.10;;
59338;SDS011;45117;50.960;5.500;2023-07-29T14:54:54;2.22;;;1.30;;
59338;SDS011;45117;50.960;5.500;2023-07-29T14:57:21;1.58;;;1.27;;
59338;SDS011;45117;50.960;5.500;2023-07-29T14:59:47;2.63;;;1.20;;
59338;SDS011;45117;50.960;5.500;2023-07-29T15:02:14;2.58;;;1.10;;
59338;SDS011;45117;50.960;5.500;2023-07-29T15:04:42;1.20;;;1.10;;
59338;SDS011;45117;50.960;5.500;2023-07-29T15:07:08;2.13;;;1.08;;
59338;SDS011;45117;50.960;5.500;2023-07-29T15:09:40;1.38;;;1.00;;
59338;SDS011;45117;50.960;5.500;2023-07-29T15:12:12;2.00;;;0.90;;
59338;SDS011;45117;50.960;5.500;2023-07-29T15:14:45;2.03;;;0.80;;
59338;SDS011;45117;50.960;5.500;2023-07-29T15:17:12;0.77;;;0.77;;
59338;SDS011;45117;50.960;5.500;2023-07-29T15:19:39;1.17;;;0.70;;
59338;SDS011;45117;50.960;5.500;2023-07-29T15:22:06;0.60;;;0.60;;
59338;SDS011;45117;50.960;5.500;2023-07-29T15:24:33;1.77;;;0.70;;